METAR Reports for Delaware

 

KDOV - Dover Afb, Delaware, USA
Distance from station: ENE 107mi, 172km
Updated: Thu, 23-Nov-2017 5:56pm EST
Clear
Clear
 Wind from WSW
Wind: WSW 3 mph , 6 km/h
Temperature: 37°F , 3°C
Dew Point: 27°F , -3°C
Humidity: 65%
Barometer: 30.07 inHg , 1018.3 hPa
Clouds: Clear
Visibility: 10 miles , 16 km
2017/11/23 22:56 KDOV 232256Z AUTO 24003KT 10SM CLR 03/M03 A3007 RMK AO2 SLP186 T00281027 $
KGED - Georgetown, Delaware, USA
Distance from station: E 111mi, 179km
Updated: Thu, 23-Nov-2017 5:54pm EST
Clear
Clear
 Wind from calm
Wind: Calm
Temperature: 36°F , 2°C
Dew Point: 25°F , -4°C
Humidity: 65%
Barometer: 30.07 inHg , 1018.3 hPa
Clouds: Clear
Visibility: 10 miles , 16 km
2017/11/23 22:54 KGED 232254Z AUTO 00000KT 10SM CLR 02/M04 A3007 RMK AO2 SLP182 T00221039
KILG - Wilmington, Delaware, USA
Distance from station: ENE 114mi, 183km
Updated: Thu, 23-Nov-2017 5:51pm EST
Clear
Clear
 Wind from calm
Wind: Calm
Temperature: 37°F , 3°C
Dew Point: 21°F , -6°C
Humidity: 52%
Barometer: 30.07 inHg , 1018.3 hPa
Clouds: Clear
Visibility: 10 miles , 16 km
2017/11/23 22:51 KILG 232251Z 00000KT 10SM CLR 03/M06 A3007 RMK AO2 SLP185 T00281056